רגע לפני שאתם עוזבים...
יש לנו ב
הצעה מיוחד עבורכם!
מספר שירותים שכדאי שתכירו
| לוחית | שעת חיפוש | ||||
| 85888903 | אאודי סלובקיה | Q8 | 2024 | 01/09/2026 | 22:32:13 |
| 2781437 | טויוטה טורקיה | COROLLA | 2016 | 01/09/2026 | 22:32:13 |
| 80151304 | ב מ וו ארהב" | X6 M60I | 2026 | 01/09/2026 | 22:32:13 |
| 77780803 | יונדאי קוריאה הדרומית | KONA HYBRID | 2024 | 01/09/2026 | 22:32:12 |
| 23581902 | ניסאן יפן | X-TRAIL | 2020 | 01/09/2026 | 22:32:10 |
| 3206778 | הונדה יפן | INSIGHT HYBRID | 2011 | 01/09/2026 | 22:32:09 |
| 1555732 | יונדאי קוריאה הדרומית | I35 | 2015 | 01/09/2026 | 22:32:08 |
| 83793003 | יונדאי קוריאה הדרומית | VENUE | 2025 | 01/09/2026 | 22:32:07 |
| 5916637 | מיצובישי תאילנד | ATTRAGE | 2016 | 01/09/2026 | 22:32:06 |
| 75750302 | פולקסווגן פולי | - | 2022 | 01/09/2026 | 22:32:04 |
| 6437171 | מזדה יפן | MAZDA 3 | 2011 | 01/09/2026 | 22:32:01 |
| 87316703 | קוואסאקי תאילנ | - | 2024 | 01/09/2026 | 22:32:01 |
| 75259101 | סוזוקי הונגריה | VITARA | 2019 | 01/09/2026 | 22:31:58 |
| 9899178 | מרכז הגרורים | - | 2016 | 01/09/2026 | 22:31:56 |
| 44659001 | לקסוס יפן | LEXUS NX300 | 2018 | 01/09/2026 | 22:31:55 |
| 89061302 | קרייזלר ארהב" | JEEP WRANGLER | 2022 | 01/09/2026 | 22:31:55 |
| 58032101 | הונדה יפן | HR-V | 2018 | 01/09/2026 | 22:31:53 |
| 23696103 | אודי מקסיקו | Q5 | 2023 | 01/09/2026 | 22:31:53 |
| 410011 | פיג'ו צרפת | - | 1977 | 01/09/2026 | 22:31:51 |
| 6473916 | פורד גרמניה | FOCUS | 2012 | 01/09/2026 | 22:31:49 |
| 50315703 | רנו טורקיה | CLIO | 2023 | 01/09/2026 | 22:31:48 |
| 6451233 | קיה סלובקיה | CEED | 2015 | 01/09/2026 | 22:31:48 |
| 50315703 | רנו טורקיה | CLIO | 2023 | 01/09/2026 | 22:31:47 |
| 59312103 | צ'רי סין | TIGGO 8 PRO | 2024 | 01/09/2026 | 22:31:46 |
| 3112920 | מיצובישי יפן | LANCER | 1996 | 01/09/2026 | 22:31:46 |
| 83793803 | יונדאי קוריאה הדרומית | VENUE | 2024 | 01/09/2026 | 22:31:43 |
| 1404631 | מיצובישי תאילנד | SPACE STAR | 2014 | 01/09/2026 | 22:31:41 |
| 9140225 | קיה קוריאה הדרומית | RIO | 2012 | 01/09/2026 | 22:31:36 |
| 2781437 | טויוטה טורקיה | COROLLA | 2016 | 01/09/2026 | 22:31:34 |
| 7357854 | ב מ וו גרמניה | 520I | 2015 | 01/09/2026 | 22:31:32 |
| 85888903 | אאודי סלובקיה | Q8 | 2024 | 01/09/2026 | 22:31:31 |
| 3752073 | סוזוקי יפן | GRAND VITARA | 2010 | 01/09/2026 | 22:31:25 |
| 1136032 | יונדאי קוריאה הדרומית | I35 | 2014 | 01/09/2026 | 22:31:25 |
| 92414201 | פולקסווגן גרמניה | ID4 | 2021 | 01/09/2026 | 22:31:22 |
| 35058704 | סקודה צ'כיה | SUPERB | 2025 | 01/09/2026 | 22:31:21 |
| 45662602 | סקודה צ'כיה | OCTAVIA | 2021 | 01/09/2026 | 22:31:18 |
| 49100001 | אאודי גרמניה | RS5 COUPE | 2018 | 01/09/2026 | 22:31:18 |
| 25061804 | פיג'ו ספרד | 208 | 2025 | 01/09/2026 | 22:31:16 |
| 3396273 | סוזוקי-יפן | SX4 | 2010 | 01/09/2026 | 22:31:14 |
| 64867004 | בי ווי די סין | SEAL U | 2026 | 01/09/2026 | 22:31:13 |
| 43881102 | טויוטה טורקיה | COROLLA HSD SDN | 2021 | 01/09/2026 | 22:31:13 |
| 5629739 | מיצובישי תאילנד | ATTRAGE | 2016 | 01/09/2026 | 22:31:13 |
| 28452103 | רנו טורקיה | MEGANE | 2022 | 01/09/2026 | 22:31:11 |
| 77780803 | יונדאי קוריאה הדרומית | KONA HYBRID | 2024 | 01/09/2026 | 22:31:11 |
| 74531602 | ג'יפ ארהב" | WRANGLER | 2022 | 01/09/2026 | 22:31:07 |
| 43049603 | ב מ וו ארהב" | X6 XDRIVE30D | 2023 | 01/09/2026 | 22:31:06 |
| 2781437 | טויוטה טורקיה | COROLLA | 2016 | 01/09/2026 | 22:31:05 |
| 56669204 | מרכז הגרורים | - | 2026 | 01/09/2026 | 22:31:05 |
| 16841303 | קיה קוריאה הדרומית | SORENTO | 2022 | 01/09/2026 | 22:31:04 |
| 3635911 | יונדאי טורקיה | I20 | 2013 | 01/09/2026 | 22:31:02 |
| 4224712 | סקודה צ'כיה | YETI | 2013 | 01/09/2026 | 22:31:02 |
| 85888903 | אאודי סלובקיה | Q8 | 2024 | 01/09/2026 | 22:31:02 |
| 4389730 | דאף אנגליה | - | 2015 | 01/09/2026 | 22:31:01 |
| 2694538 | פולקסווגן גרמניה | TRANSPORTER | 2016 | 01/09/2026 | 22:31:00 |
| 1692013 | פולקסווגן ספרד | POLO | 2006 | 01/09/2026 | 22:31:00 |
| 4659165 | סיטרואן ספרד | C4 PICASSO | 2008 | 01/09/2026 | 22:31:00 |
| 9243565 | מזדה יפן | MAZDA 5 | 2008 | 01/09/2026 | 22:31:00 |
| 37349001 | סקודה צ'כיה | KODIAQ | 2018 | 01/09/2026 | 22:30:59 |
| 56200301 | אאודי גרמניה | A3 SB E-TRON | 2018 | 01/09/2026 | 22:30:59 |
| 63054303 | מיצובישי יפן | ASX | 2024 | 01/09/2026 | 22:30:58 |
| 43220303 | מזדה תאילנד | MAZDA 2 | 2023 | 01/09/2026 | 22:30:58 |
| 47168002 | מזדה יפן | MAZDA 6 | 2021 | 01/09/2026 | 22:30:57 |
| 83246403 | יונדאי קוריאה הדרומית | ELANTRA HEV | 2024 | 01/09/2026 | 22:30:53 |
| 77780803 | יונדאי קוריאה הדרומית | KONA HYBRID | 2024 | 01/09/2026 | 22:30:41 |
| 50598404 | טויוטה תאילנד | HILUX | 2026 | 01/09/2026 | 22:30:38 |
| 64538402 | ב מ וו גרמניה | 430I | 2021 | 01/09/2026 | 22:30:36 |
| 4579413 | שברולט קוריאה הדרומית | CRUZE 1.6 LS | 2012 | 01/09/2026 | 22:30:32 |
| 44075702 | אאודי גרמניה | A3 SPORTBACK | 2021 | 01/09/2026 | 22:30:32 |
| 3015332 | שברולט ארהב" | TRAVERSE | 2014 | 01/09/2026 | 22:30:30 |
| 3184030 | מיצובישי יפן | OUTLANDER | 2014 | 01/09/2026 | 22:30:28 |
| 63363701 | סיאט ספרד | ARONA | 2019 | 01/09/2026 | 22:30:27 |
| 8176331 | קיה סלובקיה | SPORTAGE | 2014 | 01/09/2026 | 22:30:26 |
| 1525774 | יונדאי צ'כיה | I30 | 2010 | 01/09/2026 | 22:30:24 |
| 87119702 | טויוטה צרפת | YARIS CROSS | 2022 | 01/09/2026 | 22:30:21 |
| 15999501 | יונדאי טורקיה | I20 | 2018 | 01/09/2026 | 22:30:20 |
| 9683676 | מרצדס בנץ גרמנ | - | 2014 | 01/09/2026 | 22:30:18 |
| 70146202 | גולדן דרגון סי | - | 2021 | 01/09/2026 | 22:30:17 |
| 31818001 | קואנג יאנג טיו | - | 2018 | 01/09/2026 | 22:30:17 |
| 87119702 | טויוטה צרפת | YARIS CROSS | 2022 | 01/09/2026 | 22:30:16 |
| 4877037 | מרצדס גרמניה | A180 | 2016 | 01/09/2026 | 22:30:16 |
| 87119702 | טויוטה צרפת | YARIS CROSS | 2022 | 01/09/2026 | 22:30:16 |
| 65110303 | אופל ספרד | CORSA | 2024 | 01/09/2026 | 22:30:15 |
| 1061238 | סוזוקי הונגריה | SX4 CROSSOVER | 2016 | 01/09/2026 | 22:30:14 |
| 73779603 | מזדה יפן | MAZDA CX-30 | 2024 | 01/09/2026 | 22:30:14 |
| 5725112 | פולקסווגן גרמניה | T5 | 2013 | 01/09/2026 | 22:30:14 |
| 7847355 | קיה סלובקיה | CEED | 2017 | 01/09/2026 | 22:30:14 |
| 7847355 | קיה סלובקיה | CEED | 2017 | 01/09/2026 | 22:30:13 |
| 39416803 | פורד ארהב" | - | 2023 | 01/09/2026 | 22:30:13 |
| 6040057 | הונדה טורקיה | CIVIC | 2006 | 01/09/2026 | 22:30:12 |
| 77780803 | יונדאי קוריאה הדרומית | KONA HYBRID | 2024 | 01/09/2026 | 22:30:11 |
| 80151304 | ב מ וו ארהב" | X6 M60I | 2026 | 01/09/2026 | 22:30:10 |
| 4664374 | טויוטה יפן | COROLLA | 2011 | 01/09/2026 | 22:30:09 |
| 54271202 | יונדאי טורקיה | I20 | 2021 | 01/09/2026 | 22:30:07 |
| 9270063 | מיצובישי יפן | OUTLANDER | 2008 | 01/09/2026 | 22:30:04 |
| 67154002 | טסלה ארהב" | MODEL 3 | 2021 | 01/09/2026 | 22:30:02 |
| 6428669 | דימלרקריזלר-גר | - | 2009 | 01/09/2026 | 22:30:02 |
| 82909402 | טויוטה צרפת | YARIS HYBRID | 2022 | 01/09/2026 | 22:30:01 |
| 50297504 | טויוטה יפן | RAV4 HYBRID | 2026 | 01/09/2026 | 22:30:01 |
| 25853901 | סיאט ספרד | LEON | 2017 | 01/09/2026 | 22:29:59 |
| 7911114 | טויוטה יפן | CAMRY | 2007 | 01/09/2026 | 22:29:59 |
| 8975652 | סקודה צ'כיה | OCTAVIA | 2013 | 01/09/2026 | 22:29:59 |
| 30553702 | פיג'ו ספרד | 2008 | 2021 | 01/09/2026 | 22:29:58 |
| 2411671 | פורד ארהב" | EXPLORER | 2010 | 01/09/2026 | 22:29:56 |
| 12398004 | מיצובישי יפן | OUTLANDER | 2025 | 01/09/2026 | 22:29:54 |
| 1737775 | סובארו יפן | B4 | 2012 | 01/09/2026 | 22:29:53 |
| 8787666 | טויוטה יפן | COROLLA | 2009 | 01/09/2026 | 22:29:53 |
| 60344503 | פיאט פורטוגל | DOBLO | 2024 | 01/09/2026 | 22:29:50 |
| 4637511 | יונדאי צ'כיה | I30 | 2013 | 01/09/2026 | 22:29:49 |
| 9119369 | דימלרקריזלר-גר | - | 2009 | 01/09/2026 | 22:29:49 |
| 80412104 | בי ווי די סין | SEALION 5 | 2026 | 01/09/2026 | 22:29:49 |
| 61512103 | טסלה סין | MODEL Y | 2023 | 01/09/2026 | 22:29:48 |
| 8035465 | מזדה יפן | MAZDA3 | 2008 | 01/09/2026 | 22:29:44 |
| 49732802 | סקודה צ'כיה | SUPERB | 2021 | 01/09/2026 | 22:29:44 |
| 9683676 | מרצדס בנץ גרמנ | - | 2014 | 01/09/2026 | 22:29:41 |
| 2782179 | רנו טורקיה | FLUENCE | 2012 | 01/09/2026 | 22:29:40 |
| 1169834 | מרצדס הונגריה | CLA250 | 2015 | 01/09/2026 | 22:29:37 |
| 4294536 | רנו ספרד | MEGANE | 2002 | 01/09/2026 | 22:29:35 |
| 1143162 | טויוטה בריטניה | COROLLA RUNX | 2007 | 01/09/2026 | 22:29:31 |
| 7730332 | טויוטה ארהב" | HIGHLANDER | 2015 | 01/09/2026 | 22:29:31 |
| 1216333 | פיאט פולין | FIAT 500 1.2 | 2015 | 01/09/2026 | 22:29:27 |
| 7671569 | סקניה-שוודיה | - | 2018 | 01/09/2026 | 22:29:26 |
| 18348102 | קיה סלובקיה | SPORTAGE | 2020 | 01/09/2026 | 22:29:20 |
| 87119702 | טויוטה צרפת | YARIS CROSS | 2022 | 01/09/2026 | 22:29:18 |
| 3791818 | שברולט ארהב" | קאווליר SL | 1997 | 01/09/2026 | 22:29:15 |
| 5508576 | יונדאי קוריאה הדרומית | IX35 | 2011 | 01/09/2026 | 22:29:14 |
| 87119702 | טויוטה צרפת | YARIS CROSS | 2022 | 01/09/2026 | 22:29:14 |
| 7847355 | קיה סלובקיה | CEED | 2017 | 01/09/2026 | 22:29:13 |
| 70146402 | גולדן דרגון סי | - | 2021 | 01/09/2026 | 22:29:13 |
| 1219032 | יונדאי קוריאה הדרומית | I25 | 2014 | 01/09/2026 | 22:29:11 |
| 67043101 | סיאט ספרד | IBIZA | 2019 | 01/09/2026 | 22:29:06 |
| 3713680 | סיאט ספרד | IBIZA | 2017 | 01/09/2026 | 22:29:06 |
| 5160826 | קיה קוריאה הדרומית | STONIC | 2022 | 01/09/2026 | 22:29:04 |
| 13231603 | סיטרואן סלובקיה | C3 | 2022 | 01/09/2026 | 22:29:03 |
| 19459303 | יונדאי צ'כיה | TUCSON | 2023 | 01/09/2026 | 22:29:03 |
| 1332032 | יונדאי צ'כיה | I30 | 2015 | 01/09/2026 | 22:29:02 |
| 4877037 | מרצדס גרמניה | A180 | 2016 | 01/09/2026 | 22:28:57 |
| 1660474 | סיטרואן צרפת | C3 | 2010 | 01/09/2026 | 22:28:54 |
| 32410602 | טויוטה תאילנד | HILUX | 2020 | 01/09/2026 | 22:28:54 |
| 7847355 | קיה סלובקיה | CEED | 2017 | 01/09/2026 | 22:28:52 |
| 49198802 | קימקו טאיוון | - | 2025 | 01/09/2026 | 22:28:50 |
| 4877037 | מרצדס גרמניה | A180 | 2016 | 01/09/2026 | 22:28:49 |
| 67394101 | הונדה איטליה | - | 2019 | 01/09/2026 | 22:28:49 |
| 87119702 | טויוטה צרפת | YARIS CROSS | 2022 | 01/09/2026 | 22:28:45 |
| 74104002 | קיה סלובקיה | SPORTAGE | 2021 | 01/09/2026 | 22:28:44 |
| 1634576 | ב מ וו בריטניה | MINI ONE | 2013 | 01/09/2026 | 22:28:44 |
| 33792203 | יונדאי טורקיה | I20 | 2023 | 01/09/2026 | 22:28:39 |
| 31960002 | סיאט ספרד | IBIZA | 2020 | 01/09/2026 | 22:28:36 |
| 8216252 | וולבו בלגיה | XC60 T5 | 2014 | 01/09/2026 | 22:28:36 |
| 5427770 | איסוזו תאילנד | PICK-UP | 2009 | 01/09/2026 | 22:28:34 |
| 60996103 | פולקסווגן | AMAROK | 2024 | 01/09/2026 | 22:28:30 |
| 70002803 | סקודה צ'כיה | SUPERB FL | 2024 | 01/09/2026 | 22:28:28 |
| 7847355 | קיה סלובקיה | CEED | 2017 | 01/09/2026 | 22:28:23 |
| 1505733 | רנו ספרד | CAPTUR | 2015 | 01/09/2026 | 22:28:22 |
| 4783179 | סאנגיונג קוריאה הדרומית | RODIUS | 2012 | 01/09/2026 | 22:28:21 |
| 24793502 | פולקסווגן פולי | - | 2020 | 01/09/2026 | 22:28:19 |
| 83368903 | מרצדס גרמניה | GLC 300 COUPE | 2024 | 01/09/2026 | 22:28:18 |
| 9683676 | מרצדס בנץ גרמנ | - | 2014 | 01/09/2026 | 22:28:17 |
| 1009011 | יונדאי קוריאה הדרומית | I25 | 2012 | 01/09/2026 | 22:28:16 |
| 88939403 | מזדה יפן | MAZDA CX-30 | 2024 | 01/09/2026 | 22:28:12 |
| 6714011 | פורד גרמניה | FOCUS | 2014 | 01/09/2026 | 22:28:08 |
| 39416803 | פורד ארהב" | - | 2023 | 01/09/2026 | 22:28:07 |
| 12020501 | טויוטה תאילנד | HILUX | 2018 | 01/09/2026 | 22:28:06 |
| 345898 | ב מ וו גרמניה | - | 1973 | 01/09/2026 | 22:28:05 |
| 1172765 | סאן יאנג טיואן | - | 2008 | 01/09/2026 | 22:28:05 |
| 7523130 | ג'ון דיר ארהב" | - | 2014 | 01/09/2026 | 22:28:04 |
| 6646918 | פולקסווגן גרמניה | PASSAT | 1998 | 01/09/2026 | 22:28:03 |
| 3279164 | פולקסווגן מקסיקה | JETTA | 2008 | 01/09/2026 | 22:28:01 |
| 1364028 | סאן יאנג טיואן | - | 2016 | 01/09/2026 | 22:28:01 |
| 34868402 | הונדה בריטניה | CIVIC 5D | 2021 | 01/09/2026 | 22:27:52 |
| 50362103 | מרצדס בנץ גרמנ | - | 2023 | 01/09/2026 | 22:27:51 |
| 2764661 | טויוטה יפן | CAMRY | 2007 | 01/09/2026 | 22:27:50 |
| 1485785 | קיה קוריאה הדרומית | FORTE | 2016 | 01/09/2026 | 22:27:48 |
| 2148278 | מרוטי סוזוקי הודו | ALTO | 2011 | 01/09/2026 | 22:27:45 |
| 6208231 | הונדה יפן | ACCORD | 2015 | 01/09/2026 | 22:27:42 |
| 7206062 | פורד ספרד | FOCUS | 2007 | 01/09/2026 | 22:27:40 |
| 3362739 | שברולט ארהב" | - | 2016 | 01/09/2026 | 22:27:38 |
| 1138451 | סיטרואן ספרד | BERLINGO | 2003 | 01/09/2026 | 22:27:38 |
| 7362566 | טויוטה יפן | COROLLA | 2008 | 01/09/2026 | 22:27:37 |
| 1806914 | יונדאי קוריאה הדרומית | ELANTRA | 2005 | 01/09/2026 | 22:27:36 |
| 78834703 | ימהה צרפת | - | 2024 | 01/09/2026 | 22:27:35 |
| 1146610 | טויוטה יפן | YARIS | 2001 | 01/09/2026 | 22:27:30 |
| 9134275 | מרכבי נוע בעמ | - | 2014 | 01/09/2026 | 22:27:30 |
| 7750038 | קיה סלובקיה | SPORTAGE | 2016 | 01/09/2026 | 22:27:11 |
| 18192002 | מרצדס בנץ גרמנ | - | 2020 | 01/09/2026 | 22:27:07 |
| 4490534 | אופל ד. קוריאה | MOKKA | 2015 | 01/09/2026 | 22:27:04 |
| 8321680 | קרייזלר מכסיקו | - | 2017 | 01/09/2026 | 22:27:03 |
| 93728501 | סקודה צ'כיה | OCTAVIA | 2021 | 01/09/2026 | 22:27:01 |
| 90647501 | שברולט ארהב" | - | 2018 | 01/09/2026 | 22:26:59 |
| 3489771 | מזדה יפן | MAZDA 3 | 2010 | 01/09/2026 | 22:26:56 |
| 80995501 | טויוטה טורקיה | C-HR HYBRID | 2019 | 01/09/2026 | 22:26:56 |
| 52562101 | יונדאי קוריאה הדרומית | SANTA FE | 2018 | 01/09/2026 | 22:26:54 |
| 24520903 | ב מ וו ארהב" | X6 XDRIVE30D | 2022 | 01/09/2026 | 22:26:51 |
| 4816413 | אלפא רומיאו איטליה | ALFA MIT0 | 2012 | 01/09/2026 | 22:26:50 |
| 1190560 | טויוטה יפן | RAV 4 | 2006 | 01/09/2026 | 22:26:47 |
| 3818771 | מזדה יפן | MAZDA 3 | 2010 | 01/09/2026 | 22:26:46 |
| 1383810 | טויוטה יפן | COROLLA | 2001 | 01/09/2026 | 22:26:46 |
| 74182802 | קיה סלובקיה | SPORTAGE | 2021 | 01/09/2026 | 22:26:44 |
| 67304901 | וולבו בלגיה | V40 T3 | 2019 | 01/09/2026 | 22:26:42 |
| 3424116 | ניסאן יפן | מקסימה L2 ES 4 T/A | 1996 | 01/09/2026 | 22:26:41 |
| 82789902 | טויוטה צרפת | YARIS CROSS HSD | 2022 | 01/09/2026 | 22:26:40 |